sensor_id;sensor_type;location;lat;lon;timestamp;temperature;humidity
46356;DHT22;32066;49.474;11.106;2022-12-18T00:00:58;-2.30;90.30
46356;DHT22;32066;49.474;11.106;2022-12-18T00:03:25;-2.30;89.80
46356;DHT22;32066;49.474;11.106;2022-12-18T00:05:53;-2.20;88.90
46356;DHT22;32066;49.474;11.106;2022-12-18T00:08:20;-2.20;87.90
46356;DHT22;32066;49.474;11.106;2022-12-18T00:10:46;-2.10;87.10
46356;DHT22;32066;49.474;11.106;2022-12-18T00:13:13;-2.10;86.70
46356;DHT22;32066;49.474;11.106;2022-12-18T00:15:40;-2.10;86.20
46356;DHT22;32066;49.474;11.106;2022-12-18T00:18:07;-2.00;85.80
46356;DHT22;32066;49.474;11.106;2022-12-18T00:20:36;-2.00;85.50
46356;DHT22;32066;49.474;11.106;2022-12-18T00:23:04;-2.00;84.80
46356;DHT22;32066;49.474;11.106;2022-12-18T00:25:33;-1.90;84.40
46356;DHT22;32066;49.474;11.106;2022-12-18T00:28:00;-1.90;84.10
46356;DHT22;32066;49.474;11.106;2022-12-18T00:30:27;-1.90;83.40
46356;DHT22;32066;49.474;11.106;2022-12-18T00:32:54;-1.90;82.80
46356;DHT22;32066;49.474;11.106;2022-12-18T00:35:24;-1.80;82.50
46356;DHT22;32066;49.474;11.106;2022-12-18T00:37:51;-1.80;82.30
46356;DHT22;32066;49.474;11.106;2022-12-18T00:40:20;-1.80;81.60
46356;DHT22;32066;49.474;11.106;2022-12-18T00:42:46;-1.80;81.00
46356;DHT22;32066;49.474;11.106;2022-12-18T00:45:22;-1.80;80.70
46356;DHT22;32066;49.474;11.106;2022-12-18T00:47:48;-1.70;80.40
46356;DHT22;32066;49.474;11.106;2022-12-18T00:50:16;-1.70;80.10
46356;DHT22;32066;49.474;11.106;2022-12-18T00:52:42;-1.80;79.60
46356;DHT22;32066;49.474;11.106;2022-12-18T00:55:10;-1.70;79.30
46356;DHT22;32066;49.474;11.106;2022-12-18T00:57:38;-1.70;79.10
46356;DHT22;32066;49.474;11.106;2022-12-18T01:00:06;-1.80;78.80
46356;DHT22;32066;49.474;11.106;2022-12-18T01:02:34;-1.80;78.80
46356;DHT22;32066;49.474;11.106;2022-12-18T01:05:01;-1.80;78.70
46356;DHT22;32066;49.474;11.106;2022-12-18T01:07:28;-1.80;78.60
46356;DHT22;32066;49.474;11.106;2022-12-18T01:09:55;-1.80;78.50
46356;DHT22;32066;49.474;11.106;2022-12-18T01:12:21;-1.70;78.30
46356;DHT22;32066;49.474;11.106;2022-12-18T01:14:51;-1.70;78.20
46356;DHT22;32066;49.474;11.106;2022-12-18T01:17:18;-1.70;77.90
46356;DHT22;32066;49.474;11.106;2022-12-18T01:19:44;-1.60;77.70
46356;DHT22;32066;49.474;11.106;2022-12-18T01:22:11;-1.70;77.40
46356;DHT22;32066;49.474;11.106;2022-12-18T01:24:38;-1.70;77.20
46356;DHT22;32066;49.474;11.106;2022-12-18T01:27:05;-1.60;77.10
46356;DHT22;32066;49.474;11.106;2022-12-18T01:29:32;-1.60;76.90
46356;DHT22;32066;49.474;11.106;2022-12-18T01:32:00;-1.60;76.80
46356;DHT22;32066;49.474;11.106;2022-12-18T01:34:29;-1.60;76.60
46356;DHT22;32066;49.474;11.106;2022-12-18T01:36:56;-1.50;76.40
46356;DHT22;32066;49.474;11.106;2022-12-18T01:39:23;-1.50;76.30
46356;DHT22;32066;49.474;11.106;2022-12-18T01:41:49;-1.50;76.20
46356;DHT22;32066;49.474;11.106;2022-12-18T01:44:57;-1.50;76.10
46356;DHT22;32066;49.474;11.106;2022-12-18T01:47:29;-1.50;75.90
46356;DHT22;32066;49.474;11.106;2022-12-18T01:49:58;-1.50;75.70
46356;DHT22;32066;49.474;11.106;2022-12-18T01:52:28;-1.50;75.50
46356;DHT22;32066;49.474;11.106;2022-12-18T01:54:55;-1.50;75.40
46356;DHT22;32066;49.474;11.106;2022-12-18T01:57:23;-1.40;75.40
46356;DHT22;32066;49.474;11.106;2022-12-18T01:59:53;-1.40;75.30
46356;DHT22;32066;49.474;11.106;2022-12-18T02:02:22;-1.40;75.10
46356;DHT22;32066;49.474;11.106;2022-12-18T02:04:50;-1.40;75.00
46356;DHT22;32066;49.474;11.106;2022-12-18T02:07:24;-1.40;75.00
46356;DHT22;32066;49.474;11.106;2022-12-18T02:09:57;-1.40;74.80
46356;DHT22;32066;49.474;11.106;2022-12-18T02:12:31;-1.40;74.70
46356;DHT22;32066;49.474;11.106;2022-12-18T02:15:03;-1.40;75.10
46356;DHT22;32066;49.474;11.106;2022-12-18T02:17:41;-1.40;74.30
46356;DHT22;32066;49.474;11.106;2022-12-18T02:20:17;-1.40;74.10
46356;DHT22;32066;49.474;11.106;2022-12-18T02:23:03;-1.40;74.30
46356;DHT22;32066;49.474;11.106;2022-12-18T02:28:16;-1.40;74.40
46356;DHT22;32066;49.474;11.106;2022-12-18T02:30:47;-1.30;74.30
46356;DHT22;32066;49.474;11.106;2022-12-18T02:33:16;-1.30;74.30
46356;DHT22;32066;49.474;11.106;2022-12-18T02:35:45;-1.40;74.00
46356;DHT22;32066;49.474;11.106;2022-12-18T02:38:13;-1.40;73.80
46356;DHT22;32066;49.474;11.106;2022-12-18T02:40:44;-1.40;73.60
46356;DHT22;32066;49.474;11.106;2022-12-18T02:43:16;-1.40;73.50
46356;DHT22;32066;49.474;11.106;2022-12-18T02:45:49;-1.30;73.50
46356;DHT22;32066;49.474;11.106;2022-12-18T02:48:20;-1.30;73.20
46356;DHT22;32066;49.474;11.106;2022-12-18T02:50:53;-1.30;73.10
46356;DHT22;32066;49.474;11.106;2022-12-18T02:53:33;-1.30;73.00
46356;DHT22;32066;49.474;11.106;2022-12-18T02:56:05;-1.30;72.90
46356;DHT22;32066;49.474;11.106;2022-12-18T02:58:43;-1.30;72.90
46356;DHT22;32066;49.474;11.106;2022-12-18T03:01:24;-1.40;72.80
46356;DHT22;32066;49.474;11.106;2022-12-18T03:03:56;-1.40;72.70
46356;DHT22;32066;49.474;11.106;2022-12-18T03:06:27;-1.40;72.70
46356;DHT22;32066;49.474;11.106;2022-12-18T03:08:58;-1.40;72.50
46356;DHT22;32066;49.474;11.106;2022-12-18T03:11:29;-1.30;72.40
46356;DHT22;32066;49.474;11.106;2022-12-18T03:14:20;-1.40;72.40
46356;DHT22;32066;49.474;11.106;2022-12-18T03:16:51;-1.40;72.40
46356;DHT22;32066;49.474;11.106;2022-12-18T03:19:21;-1.30;72.40
46356;DHT22;32066;49.474;11.106;2022-12-18T03:21:54;-1.30;72.40
46356;DHT22;32066;49.474;11.106;2022-12-18T03:24:25;-1.30;72.40
46356;DHT22;32066;49.474;11.106;2022-12-18T03:27:00;-1.30;72.40
46356;DHT22;32066;49.474;11.106;2022-12-18T03:29:33;-1.30;72.30
46356;DHT22;32066;49.474;11.106;2022-12-18T03:32:07;-1.30;72.40
46356;DHT22;32066;49.474;11.106;2022-12-18T03:34:36;-1.30;72.50
46356;DHT22;32066;49.474;11.106;2022-12-18T03:37:08;-1.30;72.50
46356;DHT22;32066;49.474;11.106;2022-12-18T03:39:35;-1.30;72.60
46356;DHT22;32066;49.474;11.106;2022-12-18T03:42:08;-1.30;72.60
46356;DHT22;32066;49.474;11.106;2022-12-18T03:44:49;-1.20;72.60
46356;DHT22;32066;49.474;11.106;2022-12-18T03:47:25;-1.20;72.60
46356;DHT22;32066;49.474;11.106;2022-12-18T03:49:58;-1.20;72.80
46356;DHT22;32066;49.474;11.106;2022-12-18T03:52:36;-1.20;72.90
46356;DHT22;32066;49.474;11.106;2022-12-18T03:55:07;-1.20;73.10
46356;DHT22;32066;49.474;11.106;2022-12-18T03:57:37;-1.20;73.40
46356;DHT22;32066;49.474;11.106;2022-12-18T04:00:09;-1.10;73.60
46356;DHT22;32066;49.474;11.106;2022-12-18T04:02:42;-1.10;73.90
46356;DHT22;32066;49.474;11.106;2022-12-18T04:05:11;-1.10;74.30
46356;DHT22;32066;49.474;11.106;2022-12-18T04:07:41;-1.10;74.50
46356;DHT22;32066;49.474;11.106;2022-12-18T04:10:11;-1.10;74.80
46356;DHT22;32066;49.474;11.106;2022-12-18T04:12:40;-1.00;75.00
46356;DHT22;32066;49.474;11.106;2022-12-18T04:15:12;-1.00;75.10
46356;DHT22;32066;49.474;11.106;2022-12-18T04:17:43;-1.00;75.10
46356;DHT22;32066;49.474;11.106;2022-12-18T04:20:14;-1.00;75.10
46356;DHT22;32066;49.474;11.106;2022-12-18T04:22:43;-0.90;75.00
46356;DHT22;32066;49.474;11.106;2022-12-18T04:25:12;-0.90;74.80
46356;DHT22;32066;49.474;11.106;2022-12-18T04:27:53;-0.90;74.80
46356;DHT22;32066;49.474;11.106;2022-12-18T04:30:21;-0.90;74.80
46356;DHT22;32066;49.474;11.106;2022-12-18T04:32:48;-0.90;74.80
46356;DHT22;32066;49.474;11.106;2022-12-18T04:35:16;-0.90;74.80
46356;DHT22;32066;49.474;11.106;2022-12-18T04:37:43;-0.80;74.80
46356;DHT22;32066;49.474;11.106;2022-12-18T04:40:11;-0.80;74.80
46356;DHT22;32066;49.474;11.106;2022-12-18T04:42:41;-0.80;74.90
46356;DHT22;32066;49.474;11.106;2022-12-18T04:45:09;-0.80;74.90
46356;DHT22;32066;49.474;11.106;2022-12-18T04:47:37;-0.80;75.00
46356;DHT22;32066;49.474;11.106;2022-12-18T04:50:05;-0.80;75.00
46356;DHT22;32066;49.474;11.106;2022-12-18T04:52:31;-0.80;75.00
46356;DHT22;32066;49.474;11.106;2022-12-18T04:54:58;-0.80;75.00
46356;DHT22;32066;49.474;11.106;2022-12-18T04:57:25;-0.70;75.10
46356;DHT22;32066;49.474;11.106;2022-12-18T04:59:52;-0.70;75.10
46356;DHT22;32066;49.474;11.106;2022-12-18T05:02:19;-0.70;75.20
46356;DHT22;32066;49.474;11.106;2022-12-18T05:04:47;-0.70;75.20
46356;DHT22;32066;49.474;11.106;2022-12-18T05:07:14;-0.70;75.30
46356;DHT22;32066;49.474;11.106;2022-12-18T05:09:41;-0.70;75.40
46356;DHT22;32066;49.474;11.106;2022-12-18T05:12:08;-0.70;75.50
46356;DHT22;32066;49.474;11.106;2022-12-18T05:14:34;-0.70;75.70
46356;DHT22;32066;49.474;11.106;2022-12-18T05:17:01;-0.70;75.80
46356;DHT22;32066;49.474;11.106;2022-12-18T05:19:28;-0.70;75.80
46356;DHT22;32066;49.474;11.106;2022-12-18T05:21:56;-0.70;75.80
46356;DHT22;32066;49.474;11.106;2022-12-18T05:24:23;-0.60;76.00
46356;DHT22;32066;49.474;11.106;2022-12-18T05:26:50;-0.60;76.00
46356;DHT22;32066;49.474;11.106;2022-12-18T05:29:17;-0.60;76.10
46356;DHT22;32066;49.474;11.106;2022-12-18T05:31:44;-0.70;76.10
46356;DHT22;32066;49.474;11.106;2022-12-18T05:34:11;-0.60;76.20
46356;DHT22;32066;49.474;11.106;2022-12-18T05:36:37;-0.60;76.30
46356;DHT22;32066;49.474;11.106;2022-12-18T05:39:05;-0.60;76.30
46356;DHT22;32066;49.474;11.106;2022-12-18T05:41:32;-0.60;76.40
46356;DHT22;32066;49.474;11.106;2022-12-18T05:43:59;-0.60;76.40
46356;DHT22;32066;49.474;11.106;2022-12-18T05:46:26;-0.60;76.60
46356;DHT22;32066;49.474;11.106;2022-12-18T05:48:53;-0.60;76.70
46356;DHT22;32066;49.474;11.106;2022-12-18T05:51:21;-0.60;76.90
46356;DHT22;32066;49.474;11.106;2022-12-18T05:53:48;-0.60;77.00
46356;DHT22;32066;49.474;11.106;2022-12-18T05:56:18;-0.50;77.00
46356;DHT22;32066;49.474;11.106;2022-12-18T05:58:45;-0.50;77.10
46356;DHT22;32066;49.474;11.106;2022-12-18T06:01:15;-0.50;77.10
46356;DHT22;32066;49.474;11.106;2022-12-18T06:03:42;-0.50;77.20
46356;DHT22;32066;49.474;11.106;2022-12-18T06:06:13;-0.50;77.30
46356;DHT22;32066;49.474;11.106;2022-12-18T06:08:41;-0.50;77.40
46356;DHT22;32066;49.474;11.106;2022-12-18T06:11:07;-0.50;77.50
46356;DHT22;32066;49.474;11.106;2022-12-18T06:13:36;-0.50;77.50
46356;DHT22;32066;49.474;11.106;2022-12-18T06:16:03;-0.40;77.70
46356;DHT22;32066;49.474;11.106;2022-12-18T06:18:30;-0.40;77.80
46356;DHT22;32066;49.474;11.106;2022-12-18T06:20:58;-0.40;77.90
46356;DHT22;32066;49.474;11.106;2022-12-18T06:23:25;-0.40;77.90
46356;DHT22;32066;49.474;11.106;2022-12-18T06:25:52;-0.40;77.90
46356;DHT22;32066;49.474;11.106;2022-12-18T06:28:19;-0.40;78.00
46356;DHT22;32066;49.474;11.106;2022-12-18T06:30:48;-0.50;78.80
46356;DHT22;32066;49.474;11.106;2022-12-18T06:33:16;-0.50;78.30
46356;DHT22;32066;49.474;11.106;2022-12-18T06:35:43;-0.40;78.50
46356;DHT22;32066;49.474;11.106;2022-12-18T06:38:10;-0.40;78.60
46356;DHT22;32066;49.474;11.106;2022-12-18T06:40:37;-0.40;78.70
46356;DHT22;32066;49.474;11.106;2022-12-18T06:43:05;-0.40;78.80
46356;DHT22;32066;49.474;11.106;2022-12-18T06:45:32;-0.40;78.80
46356;DHT22;32066;49.474;11.106;2022-12-18T06:48:00;-0.40;79.00
46356;DHT22;32066;49.474;11.106;2022-12-18T06:50:27;-0.40;79.10
46356;DHT22;32066;49.474;11.106;2022-12-18T06:52:54;-0.40;79.20
46356;DHT22;32066;49.474;11.106;2022-12-18T06:55:21;-0.40;79.30
46356;DHT22;32066;49.474;11.106;2022-12-18T06:57:48;-0.40;79.40
46356;DHT22;32066;49.474;11.106;2022-12-18T07:00:15;-0.40;79.50
46356;DHT22;32066;49.474;11.106;2022-12-18T07:02:42;-0.30;79.60
46356;DHT22;32066;49.474;11.106;2022-12-18T07:05:10;-0.40;79.60
46356;DHT22;32066;49.474;11.106;2022-12-18T07:07:37;-0.40;79.60
46356;DHT22;32066;49.474;11.106;2022-12-18T07:10:05;-0.30;79.60
46356;DHT22;32066;49.474;11.106;2022-12-18T07:12:31;-0.30;79.50
46356;DHT22;32066;49.474;11.106;2022-12-18T07:14:58;-0.30;79.50
46356;DHT22;32066;49.474;11.106;2022-12-18T07:17:25;-0.30;79.70
46356;DHT22;32066;49.474;11.106;2022-12-18T07:19:52;-0.20;79.90
46356;DHT22;32066;49.474;11.106;2022-12-18T07:22:20;-0.30;80.00
46356;DHT22;32066;49.474;11.106;2022-12-18T07:24:47;-0.20;80.10
46356;DHT22;32066;49.474;11.106;2022-12-18T07:27:16;-0.20;80.30
46356;DHT22;32066;49.474;11.106;2022-12-18T07:29:43;-0.20;80.30
46356;DHT22;32066;49.474;11.106;2022-12-18T07:32:10;-0.20;80.30
46356;DHT22;32066;49.474;11.106;2022-12-18T07:34:37;-0.20;80.40
46356;DHT22;32066;49.474;11.106;2022-12-18T07:37:04;-0.20;80.60
46356;DHT22;32066;49.474;11.106;2022-12-18T07:39:32;-0.20;80.60
46356;DHT22;32066;49.474;11.106;2022-12-18T07:41:59;-0.20;80.70
46356;DHT22;32066;49.474;11.106;2022-12-18T07:44:43;-0.10;80.90
46356;DHT22;32066;49.474;11.106;2022-12-18T07:47:10;-0.10;81.10
46356;DHT22;32066;49.474;11.106;2022-12-18T07:49:36;-0.10;81.30
46356;DHT22;32066;49.474;11.106;2022-12-18T07:52:03;-0.10;81.40
46356;DHT22;32066;49.474;11.106;2022-12-18T07:54:32;-0.10;81.50
46356;DHT22;32066;49.474;11.106;2022-12-18T07:56:59;-0.10;81.70
46356;DHT22;32066;49.474;11.106;2022-12-18T07:59:26;0.00;81.90
46356;DHT22;32066;49.474;11.106;2022-12-18T08:01:53;0.00;82.00
46356;DHT22;32066;49.474;11.106;2022-12-18T08:04:20;0.00;82.20
46356;DHT22;32066;49.474;11.106;2022-12-18T08:06:47;0.00;82.30
46356;DHT22;32066;49.474;11.106;2022-12-18T08:09:14;0.00;82.30
46356;DHT22;32066;49.474;11.106;2022-12-18T08:11:42;0.00;82.50
46356;DHT22;32066;49.474;11.106;2022-12-18T08:14:09;0.00;82.70
46356;DHT22;32066;49.474;11.106;2022-12-18T08:16:36;0.10;82.90
46356;DHT22;32066;49.474;11.106;2022-12-18T08:19:03;0.10;83.10
46356;DHT22;32066;49.474;11.106;2022-12-18T08:21:31;0.10;83.20
46356;DHT22;32066;49.474;11.106;2022-12-18T08:23:59;0.20;83.30
46356;DHT22;32066;49.474;11.106;2022-12-18T08:26:28;0.20;83.40
46356;DHT22;32066;49.474;11.106;2022-12-18T08:28:59;0.20;83.50
46356;DHT22;32066;49.474;11.106;2022-12-18T08:31:27;0.20;83.70
46356;DHT22;32066;49.474;11.106;2022-12-18T08:33:55;0.20;84.10
46356;DHT22;32066;49.474;11.106;2022-12-18T08:36:23;0.20;84.30
46356;DHT22;32066;49.474;11.106;2022-12-18T08:38:50;0.20;84.40
46356;DHT22;32066;49.474;11.106;2022-12-18T08:41:17;0.30;84.70
46356;DHT22;32066;49.474;11.106;2022-12-18T08:43:44;0.30;84.80
46356;DHT22;32066;49.474;11.106;2022-12-18T08:46:34;0.40;84.90
46356;DHT22;32066;49.474;11.106;2022-12-18T08:49:02;0.40;84.90
46356;DHT22;32066;49.474;11.106;2022-12-18T08:51:29;0.40;84.90
46356;DHT22;32066;49.474;11.106;2022-12-18T08:53:56;0.50;85.00
46356;DHT22;32066;49.474;11.106;2022-12-18T08:56:23;0.50;85.10
46356;DHT22;32066;49.474;11.106;2022-12-18T08:58:52;0.50;85.10
46356;DHT22;32066;49.474;11.106;2022-12-18T09:01:19;0.60;85.20
46356;DHT22;32066;49.474;11.106;2022-12-18T09:03:47;0.60;85.40
46356;DHT22;32066;49.474;11.106;2022-12-18T09:06:15;0.60;85.70
46356;DHT22;32066;49.474;11.106;2022-12-18T09:08:42;0.60;85.80
46356;DHT22;32066;49.474;11.106;2022-12-18T09:11:13;0.70;86.00
46356;DHT22;32066;49.474;11.106;2022-12-18T09:13:40;0.70;85.90
46356;DHT22;32066;49.474;11.106;2022-12-18T09:16:07;0.70;86.20
46356;DHT22;32066;49.474;11.106;2022-12-18T09:18:34;0.80;86.50
46356;DHT22;32066;49.474;11.106;2022-12-18T09:21:09;0.80;86.60
46356;DHT22;32066;49.474;11.106;2022-12-18T09:23:36;0.80;86.60
46356;DHT22;32066;49.474;11.106;2022-12-18T09:26:02;0.90;86.70
46356;DHT22;32066;49.474;11.106;2022-12-18T09:28:29;0.90;86.70
46356;DHT22;32066;49.474;11.106;2022-12-18T09:30:56;1.00;86.80
46356;DHT22;32066;49.474;11.106;2022-12-18T09:33:23;1.00;86.70
46356;DHT22;32066;49.474;11.106;2022-12-18T09:35:50;1.10;86.70
46356;DHT22;32066;49.474;11.106;2022-12-18T09:38:19;1.10;86.80
46356;DHT22;32066;49.474;11.106;2022-12-18T09:40:48;1.10;87.00
46356;DHT22;32066;49.474;11.106;2022-12-18T09:43:18;1.20;87.20
46356;DHT22;32066;49.474;11.106;2022-12-18T09:45:49;1.20;87.20
46356;DHT22;32066;49.474;11.106;2022-12-18T09:48:21;1.30;87.30
46356;DHT22;32066;49.474;11.106;2022-12-18T09:50:51;1.40;87.60
46356;DHT22;32066;49.474;11.106;2022-12-18T09:53:26;1.50;87.60
46356;DHT22;32066;49.474;11.106;2022-12-18T09:55:54;1.60;87.40
46356;DHT22;32066;49.474;11.106;2022-12-18T09:58:27;1.80;87.40
46356;DHT22;32066;49.474;11.106;2022-12-18T10:00:56;2.00;87.20
46356;DHT22;32066;49.474;11.106;2022-12-18T10:03:23;2.20;87.20
46356;DHT22;32066;49.474;11.106;2022-12-18T10:05:57;2.40;86.70
46356;DHT22;32066;49.474;11.106;2022-12-18T10:08:35;2.60;86.50
46356;DHT22;32066;49.474;11.106;2022-12-18T10:11:20;2.80;86.00
46356;DHT22;32066;49.474;11.106;2022-12-18T10:13:53;3.10;85.80
46356;DHT22;32066;49.474;11.106;2022-12-18T10:16:27;3.40;85.10
46356;DHT22;32066;49.474;11.106;2022-12-18T10:19:04;3.70;84.60
46356;DHT22;32066;49.474;11.106;2022-12-18T10:21:39;4.00;83.70
46356;DHT22;32066;49.474;11.106;2022-12-18T10:24:15;4.30;82.70
46356;DHT22;32066;49.474;11.106;2022-12-18T10:26:47;4.50;81.60
46356;DHT22;32066;49.474;11.106;2022-12-18T10:29:15;4.70;80.60
46356;DHT22;32066;49.474;11.106;2022-12-18T10:31:42;4.90;79.60
46356;DHT22;32066;49.474;11.106;2022-12-18T10:34:09;4.90;78.90
46356;DHT22;32066;49.474;11.106;2022-12-18T10:36:36;5.00;78.30
46356;DHT22;32066;49.474;11.106;2022-12-18T10:39:16;5.10;77.90
46356;DHT22;32066;49.474;11.106;2022-12-18T10:41:43;5.20;77.40
46356;DHT22;32066;49.474;11.106;2022-12-18T10:44:15;5.30;76.70
46356;DHT22;32066;49.474;11.106;2022-12-18T10:46:42;5.30;76.30
46356;DHT22;32066;49.474;11.106;2022-12-18T10:49:19;5.40;76.00
46356;DHT22;32066;49.474;11.106;2022-12-18T10:51:47;5.40;75.50
46356;DHT22;32066;49.474;11.106;2022-12-18T10:54:17;5.50;75.30
46356;DHT22;32066;49.474;11.106;2022-12-18T10:56:45;5.50;74.90
46356;DHT22;32066;49.474;11.106;2022-12-18T10:59:14;5.60;74.70
46356;DHT22;32066;49.474;11.106;2022-12-18T11:01:52;5.70;74.40
46356;DHT22;32066;49.474;11.106;2022-12-18T11:04:22;5.80;74.00
46356;DHT22;32066;49.474;11.106;2022-12-18T11:06:55;5.90;73.70
46356;DHT22;32066;49.474;11.106;2022-12-18T11:09:24;6.00;73.40
46356;DHT22;32066;49.474;11.106;2022-12-18T11:11:53;6.20;73.30
46356;DHT22;32066;49.474;11.106;2022-12-18T11:14:23;6.40;73.10
46356;DHT22;32066;49.474;11.106;2022-12-18T11:16:51;6.60;72.60
46356;DHT22;32066;49.474;11.106;2022-12-18T11:19:27;6.70;71.60
46356;DHT22;32066;49.474;11.106;2022-12-18T11:21:55;6.90;70.90
46356;DHT22;32066;49.474;11.106;2022-12-18T11:24:29;7.00;70.10
46356;DHT22;32066;49.474;11.106;2022-12-18T11:26:58;7.20;69.70
46356;DHT22;32066;49.474;11.106;2022-12-18T11:29:32;7.40;69.30
46356;DHT22;32066;49.474;11.106;2022-12-18T11:32:24;7.50;68.40
46356;DHT22;32066;49.474;11.106;2022-12-18T11:34:59;7.70;67.70
46356;DHT22;32066;49.474;11.106;2022-12-18T11:37:28;7.80;67.20
46356;DHT22;32066;49.474;11.106;2022-12-18T11:40:00;7.90;67.20
46356;DHT22;32066;49.474;11.106;2022-12-18T11:42:35;8.10;66.90
46356;DHT22;32066;49.474;11.106;2022-12-18T11:45:28;8.20;66.40
46356;DHT22;32066;49.474;11.106;2022-12-18T11:48:03;8.50;65.90
46356;DHT22;32066;49.474;11.106;2022-12-18T11:50:41;8.60;65.30
46356;DHT22;32066;49.474;11.106;2022-12-18T11:53:11;8.80;65.00
46356;DHT22;32066;49.474;11.106;2022-12-18T11:55:45;9.00;64.60
46356;DHT22;32066;49.474;11.106;2022-12-18T11:58:20;9.20;63.80
46356;DHT22;32066;49.474;11.106;2022-12-18T12:00:58;9.40;63.50
46356;DHT22;32066;49.474;11.106;2022-12-18T12:03:57;9.50;62.70
46356;DHT22;32066;49.474;11.106;2022-12-18T12:06:36;9.70;62.40
46356;DHT22;32066;49.474;11.106;2022-12-18T12:09:11;9.70;61.30
46356;DHT22;32066;49.474;11.106;2022-12-18T12:11:53;9.80;60.90
46356;DHT22;32066;49.474;11.106;2022-12-18T12:14:33;9.90;60.70
46356;DHT22;32066;49.474;11.106;2022-12-18T12:17:11;9.80;60.00
46356;DHT22;32066;49.474;11.106;2022-12-18T12:19:46;9.90;59.60
46356;DHT22;32066;49.474;11.106;2022-12-18T12:22:23;9.90;59.40
46356;DHT22;32066;49.474;11.106;2022-12-18T12:25:01;9.90;59.30
46356;DHT22;32066;49.474;11.106;2022-12-18T12:27:36;9.90;58.90
46356;DHT22;32066;49.474;11.106;2022-12-18T12:30:08;9.90;58.80
46356;DHT22;32066;49.474;11.106;2022-12-18T12:32:52;10.00;58.80
46356;DHT22;32066;49.474;11.106;2022-12-18T12:35:32;10.00;58.50
46356;DHT22;32066;49.474;11.106;2022-12-18T12:38:08;10.00;58.30
46356;DHT22;32066;49.474;11.106;2022-12-18T12:40:41;10.00;58.10
46356;DHT22;32066;49.474;11.106;2022-12-18T12:43:20;10.10;57.90
46356;DHT22;32066;49.474;11.106;2022-12-18T12:45:50;10.10;57.80
46356;DHT22;32066;49.474;11.106;2022-12-18T12:48:31;10.10;57.80
46356;DHT22;32066;49.474;11.106;2022-12-18T12:51:01;10.10;57.60
46356;DHT22;32066;49.474;11.106;2022-12-18T12:53:34;10.20;57.10
46356;DHT22;32066;49.474;11.106;2022-12-18T12:56:03;10.20;57.20
46356;DHT22;32066;49.474;11.106;2022-12-18T12:58:38;10.20;56.60
46356;DHT22;32066;49.474;11.106;2022-12-18T13:01:12;10.10;56.30
46356;DHT22;32066;49.474;11.106;2022-12-18T13:03:51;10.20;56.10
46356;DHT22;32066;49.474;11.106;2022-12-18T13:06:29;10.10;56.00
46356;DHT22;32066;49.474;11.106;2022-12-18T13:09:00;10.10;55.90
46356;DHT22;32066;49.474;11.106;2022-12-18T13:11:34;10.20;55.90
46356;DHT22;32066;49.474;11.106;2022-12-18T13:14:30;10.10;55.60
46356;DHT22;32066;49.474;11.106;2022-12-18T13:17:22;10.10;55.80
46356;DHT22;32066;49.474;11.106;2022-12-18T13:20:04;10.10;55.60
46356;DHT22;32066;49.474;11.106;2022-12-18T13:22:34;10.10;55.70
46356;DHT22;32066;49.474;11.106;2022-12-18T13:25:02;10.10;55.40
46356;DHT22;32066;49.474;11.106;2022-12-18T13:27:53;10.00;55.90
46356;DHT22;32066;49.474;11.106;2022-12-18T13:30:45;10.00;55.50
46356;DHT22;32066;49.474;11.106;2022-12-18T13:33:41;10.00;55.60
46356;DHT22;32066;49.474;11.106;2022-12-18T13:36:25;9.90;55.40
46356;DHT22;32066;49.474;11.106;2022-12-18T13:39:24;9.80;55.40
46356;DHT22;32066;49.474;11.106;2022-12-18T13:41:53;9.60;55.40
46356;DHT22;32066;49.474;11.106;2022-12-18T13:44:32;9.50;55.60
46356;DHT22;32066;49.474;11.106;2022-12-18T13:47:01;9.30;55.70
46356;DHT22;32066;49.474;11.106;2022-12-18T13:49:35;9.20;55.70
46356;DHT22;32066;49.474;11.106;2022-12-18T13:52:10;9.10;55.90
46356;DHT22;32066;49.474;11.106;2022-12-18T13:54:42;8.90;56.10
46356;DHT22;32066;49.474;11.106;2022-12-18T13:57:26;8.70;56.30
46356;DHT22;32066;49.474;11.106;2022-12-18T13:59:54;8.50;56.50
46356;DHT22;32066;49.474;11.106;2022-12-18T14:02:25;8.40;56.70
46356;DHT22;32066;49.474;11.106;2022-12-18T14:04:53;8.30;56.90
46356;DHT22;32066;49.474;11.106;2022-12-18T14:07:22;8.20;57.20
46356;DHT22;32066;49.474;11.106;2022-12-18T14:09:51;8.10;57.30
46356;DHT22;32066;49.474;11.106;2022-12-18T14:12:21;7.90;57.40
46356;DHT22;32066;49.474;11.106;2022-12-18T14:15:06;7.80;57.60
46356;DHT22;32066;49.474;11.106;2022-12-18T14:17:39;7.60;57.70
46356;DHT22;32066;49.474;11.106;2022-12-18T14:20:13;7.50;58.00
46356;DHT22;32066;49.474;11.106;2022-12-18T14:22:42;7.30;58.20
46356;DHT22;32066;49.474;11.106;2022-12-18T14:25:18;7.20;58.40
46356;DHT22;32066;49.474;11.106;2022-12-18T14:27:47;7.10;58.70
46356;DHT22;32066;49.474;11.106;2022-12-18T14:30:27;6.90;58.90
46356;DHT22;32066;49.474;11.106;2022-12-18T14:33:04;6.80;59.30
46356;DHT22;32066;49.474;11.106;2022-12-18T14:35:32;6.70;59.40
46356;DHT22;32066;49.474;11.106;2022-12-18T14:38:19;6.60;59.60
46356;DHT22;32066;49.474;11.106;2022-12-18T14:40:47;6.50;59.80
46356;DHT22;32066;49.474;11.106;2022-12-18T14:43:14;6.50;60.00
46356;DHT22;32066;49.474;11.106;2022-12-18T14:45:42;6.50;60.30
46356;DHT22;32066;49.474;11.106;2022-12-18T14:48:16;6.40;60.50
46356;DHT22;32066;49.474;11.106;2022-12-18T14:50:43;6.20;61.40
46356;DHT22;32066;49.474;11.106;2022-12-18T14:53:22;6.10;61.00
46356;DHT22;32066;49.474;11.106;2022-12-18T14:55:50;6.00;61.30
46356;DHT22;32066;49.474;11.106;2022-12-18T14:58:17;5.90;61.60
46356;DHT22;32066;49.474;11.106;2022-12-18T15:00:44;5.80;61.70
46356;DHT22;32066;49.474;11.106;2022-12-18T15:03:17;5.70;62.00
46356;DHT22;32066;49.474;11.106;2022-12-18T15:05:45;5.60;62.10
46356;DHT22;32066;49.474;11.106;2022-12-18T15:08:34;5.60;62.40
46356;DHT22;32066;49.474;11.106;2022-12-18T15:11:01;5.40;62.70
46356;DHT22;32066;49.474;11.106;2022-12-18T15:13:29;5.30;63.00
46356;DHT22;32066;49.474;11.106;2022-12-18T15:15:56;5.20;63.20
46356;DHT22;32066;49.474;11.106;2022-12-18T15:18:30;5.10;63.40
46356;DHT22;32066;49.474;11.106;2022-12-18T15:21:08;5.00;63.60
46356;DHT22;32066;49.474;11.106;2022-12-18T15:23:36;4.90;63.90
46356;DHT22;32066;49.474;11.106;2022-12-18T15:26:05;4.90;64.30
46356;DHT22;32066;49.474;11.106;2022-12-18T15:28:35;4.80;64.30
46356;DHT22;32066;49.474;11.106;2022-12-18T15:31:06;4.80;64.60
46356;DHT22;32066;49.474;11.106;2022-12-18T15:34:01;4.70;64.70
46356;DHT22;32066;49.474;11.106;2022-12-18T15:36:29;4.60;65.50
46356;DHT22;32066;49.474;11.106;2022-12-18T15:38:56;4.60;65.00
46356;DHT22;32066;49.474;11.106;2022-12-18T15:41:23;4.50;65.10
46356;DHT22;32066;49.474;11.106;2022-12-18T15:43:53;4.40;65.30
46356;DHT22;32066;49.474;11.106;2022-12-18T15:46:21;4.30;65.50
46356;DHT22;32066;49.474;11.106;2022-12-18T15:48:50;4.30;65.70